Time;durP1;ratioP1;P1;durP2;ratioP2;P2;SDS_P1;SDS_P2;PMS_P1;PMS_P2;Temp;Humidity;BMP_temperature;BMP_pressure;BME280_temperature;BME280_humidity;BME280_pressure;Samples;Min_cycle;Max_cycle;Signal;HPM_P1;HPM_P2
2021/11/04 00:01:06;;;;;;;11.27;7.25;;;13.80;82.50;;;;;;5093034;28;20085;-75
2021/11/04 00:03:31;;;;;;;10.75;8.13;;;13.80;82.60;;;;;;5094256;28;20497;-75
2021/11/04 00:05:57;;;;;;;11.70;8.13;;;13.80;82.70;;;;;;5092607;28;20118;-75
2021/11/04 00:08:23;;;;;;;9.32;7.32;;;13.70;82.80;;;;;;5094088;28;20020;-75
2021/11/04 00:10:49;;;;;;;9.48;6.78;;;13.70;82.80;;;;;;5092344;28;20477;-75
2021/11/04 00:13:15;;;;;;;11.90;7.60;;;13.70;82.90;;;;;;5092521;28;20020;-75
2021/11/04 00:15:41;;;;;;;10.73;7.75;;;13.70;82.90;;;;;;5092435;28;20194;-75
2021/11/04 00:18:07;;;;;;;9.65;7.25;;;13.70;82.90;;;;;;5092564;28;20028;-74
2021/11/04 00:20:32;;;;;;;10.15;7.30;;;13.70;82.90;;;;;;5092349;28;20066;-75
2021/11/04 00:22:58;;;;;;;9.85;7.25;;;13.70;82.90;;;;;;5093566;28;20473;-74
2021/11/04 00:25:23;;;;;;;9.75;7.30;;;13.70;83.00;;;;;;5092243;28;20020;-75
2021/11/04 00:27:49;;;;;;;10.68;7.30;;;13.70;83.00;;;;;;5093275;28;20020;-76
2021/11/04 00:30:16;;;;;;;10.68;7.25;;;13.70;83.00;;;;;;5093501;28;20552;-75
2021/11/04 00:32:51;;;;;;;10.30;7.60;;;13.70;83.00;;;;;;5093514;28;20031;-75
2021/11/04 00:35:17;;;;;;;9.73;7.03;;;13.70;83.00;;;;;;5092770;28;20107;-75
2021/11/04 00:37:43;;;;;;;10.02;7.38;;;13.70;83.00;;;;;;5092173;28;20397;-75
2021/11/04 00:40:11;;;;;;;11.38;7.57;;;13.70;83.00;;;;;;5092072;28;20028;-75
2021/11/04 00:42:36;;;;;;;10.93;7.63;;;13.70;83.00;;;;;;5093354;28;20017;-75
2021/11/04 00:45:02;;;;;;;9.85;7.05;;;13.70;83.00;;;;;;5093280;28;20031;-75
2021/11/04 00:47:28;;;;;;;9.80;7.05;;;13.70;83.00;;;;;;5092863;28;20489;-76
2021/11/04 00:49:53;;;;;;;9.05;6.50;;;13.70;83.00;;;;;;5092494;28;20512;-76
2021/11/04 00:52:19;;;;;;;9.75;6.93;;;13.70;83.00;;;;;;5091998;28;20028;-76
2021/11/04 00:54:44;;;;;;;9.40;6.88;;;13.70;83.00;;;;;;5092008;28;20026;-76
2021/11/04 00:57:10;;;;;;;8.77;6.63;;;13.70;83.10;;;;;;5092775;28;20035;-76
2021/11/04 00:59:35;;;;;;;8.93;6.47;;;13.70;83.00;;;;;;5092999;28;20028;-76
2021/11/04 01:02:01;;;;;;;10.77;6.68;;;13.70;83.00;;;;;;5091835;28;20055;-75
2021/11/04 01:04:27;;;;;;;8.65;6.30;;;13.70;83.00;;;;;;5091422;28;20074;-76
2021/11/04 01:06:52;;;;;;;9.40;6.45;;;13.70;83.00;;;;;;5092613;28;20047;-76
2021/11/04 01:09:18;;;;;;;9.05;6.38;;;13.70;83.00;;;;;;5092864;28;20073;-76
2021/11/04 01:11:43;;;;;;;8.85;6.35;;;13.70;82.90;;;;;;5091533;28;20020;-77
2021/11/04 01:14:09;;;;;;;8.48;5.95;;;13.70;82.90;;;;;;5091420;28;20023;-75
2021/11/04 01:16:34;;;;;;;9.30;6.55;;;13.70;82.90;;;;;;5092619;28;20431;-75
2021/11/04 01:19:00;;;;;;;8.05;5.93;;;13.70;82.90;;;;;;5091196;28;20031;-77
2021/11/04 01:21:26;;;;;;;9.25;6.43;;;13.70;82.90;;;;;;5092090;28;20016;-76
2021/11/04 01:23:51;;;;;;;8.55;6.05;;;13.70;82.90;;;;;;5090656;28;20024;-76
2021/11/04 01:26:17;;;;;;;9.57;6.75;;;13.70;82.90;;;;;;5092512;28;20028;-77
2021/11/04 01:28:42;;;;;;;8.25;5.95;;;13.70;82.90;;;;;;5090899;28;20367;-76
2021/11/04 01:31:08;;;;;;;9.13;6.28;;;13.70;82.90;;;;;;5091479;28;20024;-75
2021/11/04 01:33:33;;;;;;;7.97;5.88;;;13.70;82.90;;;;;;5091110;28;20118;-75
2021/11/04 01:35:59;;;;;;;9.85;6.22;;;13.70;82.90;;;;;;5092197;28;20036;-75
2021/11/04 01:38:25;;;;;;;8.80;6.28;;;13.70;83.00;;;;;;5092190;28;20026;-76
2021/11/04 01:40:50;;;;;;;8.30;5.88;;;13.70;82.90;;;;;;5091346;28;20023;-75
2021/11/04 01:43:17;;;;;;;9.30;6.15;;;13.70;82.90;;;;;;5090976;28;20020;-76
2021/11/04 01:45:42;;;;;;;8.80;6.22;;;13.70;82.90;;;;;;5089522;28;20489;-74
2021/11/04 01:48:08;;;;;;;8.85;6.32;;;13.70;82.90;;;;;;5071430;28;20025;-75
2021/11/04 01:50:34;;;;;;;8.70;5.88;;;13.70;83.00;;;;;;5087339;28;20021;-75
2021/11/04 01:53:00;;;;;;;9.07;6.25;;;13.70;82.90;;;;;;5072007;28;20032;-76
2021/11/04 01:55:28;;;;;;;7.65;5.53;;;13.70;82.90;;;;;;5089329;28;20024;-75
2021/11/04 01:57:56;;;;;;;8.07;6.07;;;13.70;83.00;;;;;;5091893;28;20027;-76
2021/11/04 02:00:25;;;;;;;8.07;5.40;;;13.70;83.00;;;;;;5091936;28;20028;-75
2021/11/04 02:03:01;;;;;;;7.93;6.03;;;13.70;83.00;;;;;;5091934;28;20028;-75
2021/11/04 02:05:34;;;;;;;8.27;5.80;;;13.70;83.00;;;;;;5091712;28;20028;-76
2021/11/04 02:08:18;;;;;;;7.93;5.90;;;13.70;83.00;;;;;;5092242;28;20524;-76
2021/11/04 02:10:50;;;;;;;7.55;5.35;;;13.70;82.90;;;;;;5092149;28;20537;-75
2021/11/04 02:13:23;;;;;;;;;;;13.70;83.00;;;;;;5092316;28;20394;-76
2021/11/04 02:15:54;;;;;;;7.53;5.57;;;13.70;83.00;;;;;;5091799;28;20307;-75
2021/11/04 02:18:23;;;;;;;7.75;5.63;;;13.70;82.90;;;;;;5091880;28;20020;-74
2021/11/04 02:20:56;;;;;;;8.15;5.75;;;13.80;82.90;;;;;;5092068;28;20085;-75
2021/11/04 02:23:49;;;;;;;8.80;5.47;;;13.80;82.80;;;;;;5091858;28;20023;-76
2021/11/04 02:26:15;;;;;;;7.68;5.57;;;13.80;82.70;;;;;;5090288;28;20385;-75
2021/11/04 02:28:41;;;;;;;8.15;5.43;;;13.80;82.60;;;;;;5090480;28;20043;-76
2021/11/04 02:31:11;;;;;;;8.18;5.40;;;13.80;82.50;;;;;;5091846;28;20028;-75
2021/11/04 02:33:39;;;;;;;8.80;5.78;;;13.80;83.00;;;;;;5090579;28;20020;-74
2021/11/04 02:36:06;;;;;;;8.43;5.95;;;13.80;83.00;;;;;;5095670;28;20081;-75
2021/11/04 02:38:33;;;;;;;13.95;6.15;;;13.80;82.40;;;;;;5095808;28;20059;-75
2021/11/04 02:41:01;;;;;;;17.83;6.63;;;13.80;82.50;;;;;;5094219;28;20028;-75
2021/11/04 02:43:32;;;;;;;16.30;6.22;;;13.80;82.50;;;;;;5095584;28;20028;-75
2021/11/04 02:45:59;;;;;;;12.55;6.47;;;13.80;82.50;;;;;;5095387;28;20048;-75
2021/11/04 02:48:27;;;;;;;13.38;6.28;;;13.80;82.40;;;;;;5093875;28;20035;-75
2021/11/04 02:50:53;;;;;;;11.50;6.32;;;13.80;82.40;;;;;;5095649;28;20388;-74
2021/11/04 02:53:21;;;;;;;9.77;6.18;;;13.80;82.30;;;;;;5095448;28;20048;-74
2021/11/04 02:55:48;;;;;;;9.55;6.30;;;13.80;82.40;;;;;;5090058;28;20075;-75
2021/11/04 02:58:14;;;;;;;9.35;6.55;;;13.80;82.50;;;;;;5073709;28;20027;-75
2021/11/04 03:00:43;;;;;;;9.57;6.50;;;13.80;82.60;;;;;;5075050;28;20021;-75
2021/11/04 03:03:09;;;;;;;10.20;6.90;;;13.80;82.80;;;;;;5074565;28;20031;-74
2021/11/04 03:05:34;;;;;;;11.15;6.82;;;13.70;82.80;;;;;;5073207;28;20013;-75
2021/11/04 03:08:00;;;;;;;10.13;6.18;;;13.70;82.90;;;;;;5073234;28;20024;-75
2021/11/04 03:10:26;;;;;;;8.70;6.30;;;13.70;83.00;;;;;;5072784;28;20513;-76
2021/11/04 03:12:52;;;;;;;9.98;6.47;;;13.70;83.10;;;;;;5081515;28;20035;-75
2021/11/04 03:15:21;;;;;;;9.93;6.70;;;13.70;83.10;;;;;;5093356;28;20032;-75
2021/11/04 03:17:49;;;;;;;9.73;6.57;;;13.60;83.10;;;;;;5094905;28;20030;-74
2021/11/04 03:20:19;;;;;;;9.50;6.63;;;13.70;83.20;;;;;;5093850;28;20024;-75
2021/11/04 03:22:46;;;;;;;9.63;7.22;;;13.70;83.20;;;;;;5093824;28;20052;-75
2021/11/04 03:25:14;;;;;;;9.80;6.78;;;13.70;83.20;;;;;;5093009;28;20024;-75
2021/11/04 03:27:42;;;;;;;10.15;6.72;;;13.70;83.20;;;;;;5094922;28;20044;-75
2021/11/04 03:30:11;;;;;;;9.73;6.78;;;13.70;83.30;;;;;;5093416;28;20123;-75
2021/11/04 03:32:37;;;;;;;9.55;7.07;;;13.70;83.30;;;;;;5093177;28;20083;-75
2021/11/04 03:35:03;;;;;;;9.85;7.22;;;13.60;83.20;;;;;;5094238;28;20114;-75
2021/11/04 03:37:31;;;;;;;10.00;7.35;;;13.70;83.30;;;;;;5093430;28;20423;-76
2021/11/04 03:39:58;;;;;;;10.15;6.70;;;13.70;83.30;;;;;;5092960;28;20024;-75
2021/11/04 03:42:24;;;;;;;10.15;7.38;;;13.60;83.30;;;;;;5093481;28;20024;-75
2021/11/04 03:44:50;;;;;;;10.05;7.47;;;13.70;83.40;;;;;;5092989;28;20028;-75
2021/11/04 03:47:17;;;;;;;10.25;7.07;;;13.60;83.30;;;;;;5093297;28;20098;-75
2021/11/04 03:49:49;;;;;;;10.27;7.45;;;13.70;83.40;;;;;;5093129;28;20038;-75
2021/11/04 03:52:15;;;;;;;9.45;7.07;;;13.70;83.40;;;;;;5094290;28;20062;-75
2021/11/04 03:54:41;;;;;;;11.07;8.07;;;13.60;83.40;;;;;;5092978;28;20446;-75
2021/11/04 03:57:07;;;;;;;10.57;7.60;;;13.70;83.40;;;;;;5092866;28;20020;-75
2021/11/04 03:59:32;;;;;;;10.50;7.95;;;13.70;83.40;;;;;;5094160;28;20390;-75
2021/11/04 04:01:58;;;;;;;11.57;7.68;;;13.70;83.40;;;;;;5092944;28;20035;-74
2021/11/04 04:04:24;;;;;;;12.88;7.78;;;13.70;83.50;;;;;;5093968;28;20505;-75
2021/11/04 04:06:52;;;;;;;12.95;7.60;;;13.60;83.40;;;;;;5092805;28;20024;-75
2021/11/04 04:09:17;;;;;;;11.05;7.65;;;13.70;83.40;;;;;;5093918;28;20048;-74
2021/11/04 04:11:43;;;;;;;12.75;7.95;;;13.70;83.40;;;;;;5092460;28;20085;-75
2021/11/04 04:14:08;;;;;;;12.38;8.05;;;13.70;83.40;;;;;;5093886;28;20030;-74
2021/11/04 04:16:34;;;;;;;13.35;8.48;;;13.70;83.40;;;;;;5092556;28;20440;-76
2021/11/04 04:18:59;;;;;;;11.38;8.10;;;13.70;83.40;;;;;;5093498;28;20024;-75
2021/11/04 04:21:25;;;;;;;10.35;7.70;;;13.70;83.40;;;;;;5092504;28;20020;-76
2021/11/04 04:23:50;;;;;;;11.63;7.88;;;13.70;83.40;;;;;;5093411;28;20485;-76
2021/11/04 04:26:16;;;;;;;10.82;7.75;;;13.70;83.40;;;;;;5093157;28;20027;-76
2021/11/04 04:28:42;;;;;;;12.75;8.45;;;13.70;83.40;;;;;;5093486;28;20501;-76
2021/11/04 04:31:07;;;;;;;12.55;7.82;;;13.70;83.40;;;;;;5093830;28;20366;-75
2021/11/04 04:33:33;;;;;;;11.15;8.25;;;13.70;83.40;;;;;;5091634;28;20024;-75
2021/11/04 04:35:58;;;;;;;10.77;7.80;;;13.60;83.30;;;;;;5092236;28;20533;-76
2021/11/04 04:38:24;;;;;;;11.35;7.88;;;13.60;83.80;;;;;;5092129;28;20024;-76
2021/11/04 04:40:50;;;;;;;11.70;8.35;;;13.70;83.40;;;;;;5091911;28;20019;-75
2021/11/04 04:43:16;;;;;;;12.25;8.13;;;13.70;83.40;;;;;;5093321;28;20024;-78
2021/11/04 04:45:43;;;;;;;12.68;8.48;;;13.70;83.40;;;;;;5092170;28;20104;-76
2021/11/04 04:48:10;;;;;;;11.10;7.75;;;13.60;83.30;;;;;;5093038;28;20639;-76
2021/11/04 04:50:37;;;;;;;11.75;8.20;;;13.70;83.40;;;;;;5091998;28;20165;-75
2021/11/04 04:53:02;;;;;;;13.90;8.48;;;13.70;83.40;;;;;;5093237;28;20115;-76
2021/11/04 04:55:28;;;;;;;12.60;8.43;;;13.70;83.40;;;;;;5091006;28;20119;-75
2021/11/04 04:57:54;;;;;;;12.52;7.97;;;13.60;83.40;;;;;;5093013;28;20028;-76
2021/11/04 05:00:20;;;;;;;13.98;8.15;;;13.70;83.40;;;;;;5093192;28;20134;-75
2021/11/04 05:02:46;;;;;;;15.48;8.40;;;13.70;83.40;;;;;;5092790;28;20023;-76
2021/11/04 05:05:12;;;;;;;12.85;8.57;;;13.60;83.30;;;;;;5091528;28;20036;-76
2021/11/04 05:07:39;;;;;;;12.07;8.45;;;13.60;83.30;;;;;;5092795;28;20020;-75
2021/11/04 05:10:06;;;;;;;17.02;8.18;;;13.60;83.40;;;;;;5091495;28;20079;-76
2021/11/04 05:12:32;;;;;;;15.10;7.97;;;13.60;83.40;;;;;;5090643;28;20024;-75
2021/11/04 05:14:57;;;;;;;13.52;8.45;;;13.70;83.40;;;;;;5091321;28;20378;-75
2021/11/04 05:17:23;;;;;;;15.02;8.68;;;13.70;83.50;;;;;;5092274;28;20027;-75
2021/11/04 05:19:49;;;;;;;12.57;8.05;;;13.70;83.40;;;;;;5092766;28;20032;-75
2021/11/04 05:22:14;;;;;;;12.43;8.40;;;13.70;83.30;;;;;;5091521;28;20024;-76
2021/11/04 05:24:40;;;;;;;11.95;8.55;;;13.70;83.20;;;;;;5092129;28;20024;-74
2021/11/04 05:27:06;;;;;;;12.63;8.98;;;13.70;83.20;;;;;;5090347;28;20468;-74
2021/11/04 05:29:32;;;;;;;12.32;8.75;;;13.70;83.10;;;;;;5091296;28;20085;-76
2021/11/04 05:31:58;;;;;;;11.10;8.00;;;13.70;83.10;;;;;;5091029;28;20032;-75
2021/11/04 05:34:24;;;;;;;11.82;8.52;;;13.70;83.00;;;;;;5092134;28;20030;-75
2021/11/04 05:36:50;;;;;;;10.75;7.90;;;13.70;83.00;;;;;;5091248;28;20032;-77
2021/11/04 05:39:16;;;;;;;11.07;7.93;;;13.70;83.00;;;;;;5081625;28;20090;-76
2021/11/04 05:41:41;;;;;;;12.13;8.48;;;13.80;83.00;;;;;;5071961;28;20060;-76
2021/11/04 05:44:07;;;;;;;11.95;8.55;;;13.80;82.90;;;;;;5080674;28;20028;-76
2021/11/04 05:46:33;;;;;;;12.25;8.85;;;13.80;82.90;;;;;;5086182;28;20020;-76
2021/11/04 05:48:58;;;;;;;13.48;7.90;;;13.80;82.90;;;;;;5086631;28;20041;-76
2021/11/04 05:51:24;;;;;;;14.15;8.75;;;13.80;82.90;;;;;;5088231;28;20024;-76
2021/11/04 05:53:49;;;;;;;11.95;8.80;;;13.80;82.90;;;;;;5086664;28;20762;-75
2021/11/04 05:56:15;;;;;;;12.57;8.82;;;13.80;82.80;;;;;;5086614;28;20790;-75
2021/11/04 05:58:41;;;;;;;14.18;9.35;;;13.80;83.40;;;;;;5086848;28;20028;-75
2021/11/04 06:01:06;;;;;;;12.82;8.95;;;13.70;82.80;;;;;;5081780;28;20028;-77
2021/11/04 06:03:32;;;;;;;15.63;9.23;;;13.80;82.80;;;;;;5066784;28;20032;-75
2021/11/04 06:05:57;;;;;;;12.32;8.52;;;13.80;83.50;;;;;;5077352;28;20292;-76
2021/11/04 06:08:23;;;;;;;12.00;9.13;;;13.70;83.00;;;;;;5086700;28;20066;-76
2021/11/04 06:10:48;;;;;;;13.32;9.00;;;13.70;83.20;;;;;;5091090;28;20106;-75
2021/11/04 06:13:14;;;;;;;11.85;8.85;;;13.70;83.40;;;;;;5092595;28;20450;-74
2021/11/04 06:15:39;;;;;;;12.15;8.65;;;13.60;83.40;;;;;;5092478;28;20500;-76
2021/11/04 06:18:05;;;;;;;12.50;9.00;;;13.60;83.60;;;;;;5091442;28;20119;-76
2021/11/04 06:20:30;;;;;;;12.82;9.10;;;13.60;83.50;;;;;;5091181;28;20076;-74
2021/11/04 06:22:57;;;;;;;11.00;8.27;;;13.60;83.60;;;;;;5087689;28;20123;-76
2021/11/04 06:25:22;;;;;;;12.88;8.95;;;13.60;83.60;;;;;;5070509;28;20021;-80
2021/11/04 06:27:48;;;;;;;12.13;8.88;;;13.60;83.60;;;;;;5044886;28;20166;-74
2021/11/04 06:30:14;;;;;;;11.10;8.10;;;13.60;83.70;;;;;;5076629;28;20872;-82
2021/11/04 06:32:40;;;;;;;12.02;8.63;;;13.60;83.70;;;;;;5008847;28;20020;-79
2021/11/04 06:35:08;;;;;;;11.85;8.43;;;13.60;83.70;;;;;;5025929;28;21325;-78
2021/11/04 06:37:35;;;;;;;11.68;8.40;;;13.60;83.70;;;;;;5003243;28;20066;-76
2021/11/04 06:40:01;;;;;;;12.43;8.57;;;13.60;83.70;;;;;;5053350;28;20035;-75
2021/11/04 06:42:27;;;;;;;14.95;8.45;;;13.60;83.40;;;;;;5085007;28;20020;-75
2021/11/04 06:44:53;;;;;;;12.07;8.52;;;13.50;83.20;;;;;;5076374;28;20029;-73
2021/11/04 06:47:31;;;;;;;14.00;8.32;;;13.50;83.30;;;;;;5081651;28;20027;-74
2021/11/04 06:49:58;;;;;;;12.93;8.18;;;13.60;83.40;;;;;;5082798;28;20028;-75
2021/11/04 06:52:29;;;;;;;12.30;8.68;;;13.60;83.40;;;;;;5086108;28;20032;-74
2021/11/04 06:54:56;;;;;;;11.20;8.27;;;13.60;83.50;;;;;;5092113;28;20020;-73
2021/11/04 06:57:24;;;;;;;12.77;8.02;;;13.60;83.50;;;;;;5091025;28;20497;-75
2021/11/04 06:59:52;;;;;;;11.80;7.95;;;13.60;83.50;;;;;;5091179;28;20036;-73
2021/11/04 07:02:35;;;;;;;12.35;8.60;;;13.60;83.50;;;;;;5091012;28;20089;-74
2021/11/04 07:05:02;;;;;;;12.25;8.43;;;13.60;83.50;;;;;;5081804;28;20057;-74
2021/11/04 07:07:28;;;;;;;11.73;8.40;;;13.60;83.50;;;;;;5080177;28;20344;-74
2021/11/04 07:09:54;;;;;;;11.85;8.82;;;13.60;83.50;;;;;;5088308;28;20515;-75
2021/11/04 07:12:20;;;;;;;11.73;8.50;;;13.60;83.50;;;;;;5084484;28;20076;-74
2021/11/04 07:14:47;;;;;;;11.05;7.90;;;13.60;83.50;;;;;;5087380;28;20032;-75
2021/11/04 07:17:14;;;;;;;11.57;8.43;;;13.60;83.50;;;;;;5081246;28;20059;-73
2021/11/04 07:19:41;;;;;;;12.30;8.45;;;13.60;83.50;;;;;;5076519;28;20028;-74
2021/11/04 07:22:24;;;;;;;12.60;8.60;;;13.60;83.50;;;;;;5080406;28;20131;-74
2021/11/04 07:24:57;;;;;;;11.43;8.38;;;13.60;84.00;;;;;;5089816;28;20025;-75
2021/11/04 07:27:55;;;;;;;13.55;9.25;;;13.60;83.50;;;;;;5079363;28;20028;-76
2021/11/04 07:30:23;;;;;;;13.05;9.18;;;13.60;83.50;;;;;;5071233;28;20043;-74
2021/11/04 07:32:54;;;;;;;14.57;9.90;;;13.60;83.50;;;;;;5070733;28;20032;-74
2021/11/04 07:35:31;;;;;;;12.52;9.05;;;13.60;83.50;;;;;;5069593;28;20056;-73
2021/11/04 07:37:58;;;;;;;17.38;10.13;;;13.60;83.40;;;;;;5076047;28;20035;-75
2021/11/04 07:40:26;;;;;;;14.35;9.75;;;13.60;83.40;;;;;;5086659;28;20034;-75
2021/11/04 07:42:52;;;;;;;16.02;10.23;;;13.60;83.40;;;;;;5086395;28;20020;-73
2021/11/04 07:45:18;;;;;;;15.13;10.48;;;13.60;83.40;;;;;;5086432;28;20028;-73
2021/11/04 07:47:45;;;;;;;15.18;10.25;;;13.60;83.50;;;;;;5087180;28;20047;-74
2021/11/04 07:50:15;;;;;;;14.82;10.02;;;13.60;83.50;;;;;;5086673;28;20119;-72
2021/11/04 07:52:41;;;;;;;16.60;10.27;;;13.60;83.50;;;;;;5087758;28;20028;-76
2021/11/04 07:55:08;;;;;;;16.73;10.52;;;13.60;83.50;;;;;;5088272;28;20031;-74
2021/11/04 07:57:37;;;;;;;16.83;12.23;;;13.60;83.40;;;;;;5086763;28;20459;-74
2021/11/04 08:00:06;;;;;;;145.95;23.20;;;13.60;82.50;;;;;;5088660;28;20110;-76
2021/11/04 08:02:31;;;;;;;164.55;25.52;;;13.50;81.90;;;;;;5088650;28;20533;-75
2021/11/04 08:04:57;;;;;;;108.72;21.67;;;13.50;81.60;;;;;;5088024;28;20083;-73
2021/11/04 08:07:23;;;;;;;79.50;18.38;;;13.50;81.30;;;;;;5084705;28;20024;-74
2021/11/04 08:09:48;;;;;;;67.95;16.67;;;13.50;81.00;;;;;;5086894;28;20393;-75
2021/11/04 08:12:14;;;;;;;66.82;16.30;;;13.50;81.10;;;;;;5081419;28;20026;-75
2021/11/04 08:14:41;;;;;;;64.25;15.95;;;13.50;81.40;;;;;;5065987;28;20495;-72
2021/11/04 08:17:07;;;;;;;61.58;15.80;;;13.50;81.30;;;;;;5065788;28;20028;-76
2021/11/04 08:19:34;;;;;;;65.32;16.67;;;13.50;81.50;;;;;;5066015;28;20039;-74
2021/11/04 08:22:01;;;;;;;64.70;16.77;;;13.50;81.70;;;;;;5066475;28;20021;-76
2021/11/04 08:24:26;;;;;;;52.38;15.95;;;13.50;81.90;;;;;;5067424;28;20031;-75
2021/11/04 08:26:52;;;;;;;53.50;15.27;;;13.50;82.00;;;;;;5065883;28;20021;-75
2021/11/04 08:29:17;;;;;;;44.75;15.63;;;13.50;82.10;;;;;;5067366;28;20496;-75
2021/11/04 08:31:43;;;;;;;54.92;15.55;;;13.50;82.20;;;;;;5065944;28;20481;-74
2021/11/04 08:34:08;;;;;;;47.10;14.73;;;13.50;82.20;;;;;;5067516;28;20032;-74
2021/11/04 08:36:34;;;;;;;45.85;14.30;;;13.50;82.40;;;;;;5064388;28;20035;-75
2021/11/04 08:38:59;;;;;;;46.00;14.68;;;13.50;82.40;;;;;;5077063;28;20038;-74
2021/11/04 08:41:25;;;;;;;34.25;13.73;;;13.60;82.40;;;;;;5074971;28;20024;-76
2021/11/04 08:43:50;;;;;;;32.53;13.63;;;13.50;82.40;;;;;;5078322;28;20020;-73
2021/11/04 08:46:16;;;;;;;32.33;13.75;;;13.60;82.50;;;;;;5073840;28;20074;-76
2021/11/04 08:48:42;;;;;;;37.40;13.45;;;13.60;82.40;;;;;;5068529;28;20016;-74
2021/11/04 08:51:08;;;;;;;35.17;13.52;;;13.60;82.40;;;;;;5071207;28;20209;-74
2021/11/04 08:53:33;;;;;;;32.15;13.30;;;13.60;82.40;;;;;;5070706;28;20024;-75
2021/11/04 08:55:59;;;;;;;37.55;13.30;;;13.60;82.30;;;;;;5070767;28;20037;-76
2021/11/04 08:58:24;;;;;;;31.52;13.13;;;13.60;82.30;;;;;;5072626;28;20027;-75
2021/11/04 09:00:54;;;;;;;27.92;12.57;;;13.70;82.40;;;;;;5072559;28;20466;-74
2021/11/04 09:03:21;;;;;;;27.20;13.27;;;13.70;82.40;;;;;;5071429;28;20033;-74
2021/11/04 09:05:47;;;;;;;30.55;12.95;;;13.60;82.30;;;;;;5072217;28;20394;-74
2021/11/04 09:08:12;;;;;;;27.65;13.13;;;13.70;82.40;;;;;;5071339;28;20021;-75
2021/11/04 09:10:39;;;;;;;21.63;11.65;;;13.70;82.30;;;;;;5071121;28;20039;-74
2021/11/04 09:13:05;;;;;;;23.45;12.25;;;13.60;82.30;;;;;;5072421;28;20486;-75
2021/11/04 09:15:31;;;;;;;28.27;12.10;;;13.70;82.40;;;;;;5072162;28;20492;-74
2021/11/04 09:17:58;;;;;;;24.75;11.38;;;13.70;82.40;;;;;;5072366;28;20025;-74
2021/11/04 09:20:24;;;;;;;22.17;12.50;;;13.70;82.40;;;;;;5072371;28;20070;-75
2021/11/04 09:22:50;;;;;;;23.17;11.50;;;13.70;82.30;;;;;;5071252;28;20025;-74
2021/11/04 09:25:18;;;;;;;20.02;10.88;;;13.60;82.50;;;;;;5070628;28;20032;-74
2021/11/04 09:27:45;;;;;;;19.10;10.65;;;13.60;82.70;;;;;;5072247;28;20044;-75
2021/11/04 09:30:11;;;;;;;24.27;11.25;;;13.60;82.90;;;;;;5070799;28;20036;-75
2021/11/04 09:32:37;;;;;;;19.55;10.70;;;13.50;82.90;;;;;;5070891;28;20021;-76
2021/11/04 09:35:04;;;;;;;19.10;11.07;;;13.50;83.10;;;;;;5070883;28;20032;-75
2021/11/04 09:37:29;;;;;;;17.98;10.70;;;13.50;83.10;;;;;;5071888;28;20043;-75
2021/11/04 09:39:55;;;;;;;17.38;10.05;;;13.50;83.20;;;;;;5070668;28;20028;-74
2021/11/04 09:42:21;;;;;;;16.50;9.70;;;13.50;83.30;;;;;;5072045;28;20074;-74
2021/11/04 09:44:49;;;;;;;17.67;10.93;;;13.50;83.30;;;;;;5070047;28;20190;-74
2021/11/04 09:47:20;;;;;;;16.10;10.13;;;13.50;83.30;;;;;;5070684;28;20017;-74
2021/11/04 09:49:46;;;;;;;15.32;9.90;;;13.50;83.30;;;;;;5072026;28;20025;-74
2021/11/04 09:52:11;;;;;;;15.73;9.90;;;13.50;83.30;;;;;;5070599;28;20494;-76
2021/11/04 09:54:37;;;;;;;13.70;9.27;;;13.50;83.40;;;;;;5071923;28;20043;-74
2021/11/04 09:57:08;;;;;;;16.23;9.70;;;13.50;83.40;;;;;;5071469;28;20040;-74
2021/11/04 09:59:33;;;;;;;13.27;9.00;;;13.50;83.40;;;;;;5070635;28;20509;-74
2021/11/04 10:01:59;;;;;;;16.63;10.48;;;13.50;83.90;;;;;;5071903;28;20070;-75
2021/11/04 10:04:32;;;;;;;15.10;9.52;;;13.50;83.40;;;;;;5070513;28;20029;-75
2021/11/04 10:06:58;;;;;;;13.07;9.52;;;13.50;83.40;;;;;;5071592;28;20023;-74
2021/11/04 10:09:27;;;;;;;13.98;8.90;;;13.50;83.40;;;;;;5071869;28;20032;-74
2021/11/04 10:11:54;;;;;;;13.93;9.25;;;13.50;83.40;;;;;;5071780;28;20029;-74
2021/11/04 10:14:20;;;;;;;12.20;8.20;;;13.50;83.40;;;;;;5070513;28;20547;-75
2021/11/04 10:16:45;;;;;;;12.05;8.80;;;13.50;83.40;;;;;;5070452;28;20065;-76
2021/11/04 10:19:16;;;;;;;12.65;8.70;;;13.50;83.30;;;;;;5070360;28;20039;-76
2021/11/04 10:21:52;;;;;;;12.27;8.52;;;13.50;83.30;;;;;;5070804;28;20451;-75
2021/11/04 10:24:26;;;;;;;13.30;8.40;;;13.50;83.30;;;;;;5070494;28;20025;-75
2021/11/04 10:26:55;;;;;;;12.85;8.73;;;13.50;83.30;;;;;;5070202;28;20027;-75
2021/11/04 10:29:26;;;;;;;12.90;8.70;;;13.50;83.30;;;;;;5070248;28;20043;-75
2021/11/04 10:31:57;;;;;;;12.50;8.65;;;13.50;83.30;;;;;;5071511;28;20024;-74
2021/11/04 10:34:32;;;;;;;13.32;8.35;;;13.50;83.30;;;;;;5070384;28;20375;-74
2021/11/04 10:37:30;;;;;;;11.63;7.88;;;13.50;83.40;;;;;;5071368;28;20051;-74
2021/11/04 10:40:04;;;;;;;11.25;8.07;;;13.50;83.30;;;;;;5069531;28;20091;-75
2021/11/04 10:42:29;;;;;;;11.90;7.93;;;13.50;83.20;;;;;;5071562;28;20073;-74
2021/11/04 10:44:55;;;;;;;12.52;7.95;;;13.50;83.20;;;;;;5071440;28;20024;-74
2021/11/04 10:47:23;;;;;;;10.88;8.07;;;13.50;83.30;;;;;;5071239;28;20074;-74
2021/11/04 10:49:50;;;;;;;11.20;8.00;;;13.50;83.30;;;;;;5070268;28;20059;-75
2021/11/04 10:52:24;;;;;;;11.88;8.18;;;13.50;83.30;;;;;;5070137;28;20510;-74
2021/11/04 10:54:54;;;;;;;12.00;7.70;;;13.50;83.30;;;;;;5072116;28;20493;-75
2021/11/04 10:57:52;;;;;;;11.75;7.75;;;13.50;83.20;;;;;;5074827;28;20502;-74
2021/11/04 11:00:21;;;;;;;11.00;7.60;;;13.50;83.30;;;;;;5040695;28;20055;-75
2021/11/04 11:03:07;;;;;;;10.68;7.20;;;13.50;83.30;;;;;;5073737;28;20125;-74
2021/11/04 11:05:35;;;;;;;10.52;6.88;;;13.50;83.30;;;;;;5073518;28;20027;-74
2021/11/04 11:08:01;;;;;;;11.13;7.00;;;13.50;83.30;;;;;;5073643;28;20035;-74
2021/11/04 11:10:27;;;;;;;9.93;6.80;;;13.50;83.30;;;;;;5074934;28;20032;-74
2021/11/04 11:12:53;;;;;;;10.15;6.90;;;13.50;83.20;;;;;;5074825;28;20021;-74
2021/11/04 11:15:18;;;;;;;9.48;6.55;;;13.50;83.30;;;;;;5073448;28;20142;-76
2021/11/04 11:17:48;;;;;;;9.30;6.50;;;13.50;83.30;;;;;;5073505;28;20025;-76
2021/11/04 11:20:18;;;;;;;10.40;6.57;;;13.50;83.30;;;;;;5074558;28;20025;-75
2021/11/04 11:22:44;;;;;;;9.07;6.30;;;13.50;83.20;;;;;;5073435;28;20393;-75
2021/11/04 11:25:10;;;;;;;8.80;6.07;;;13.50;83.20;;;;;;5072954;28;20584;-75
2021/11/04 11:27:36;;;;;;;9.40;5.80;;;13.50;83.20;;;;;;5074441;28;20024;-76
2021/11/04 11:30:08;;;;;;;8.43;5.72;;;13.50;83.20;;;;;;5073118;28;20036;-75
2021/11/04 11:32:34;;;;;;;8.95;5.85;;;13.50;83.20;;;;;;5074567;28;20021;-75
2021/11/04 11:35:14;;;;;;;8.88;5.78;;;13.50;83.20;;;;;;5073133;28;20029;-76
2021/11/04 11:38:00;;;;;;;9.32;6.55;;;13.50;83.20;;;;;;5073217;28;20024;-75
2021/11/04 11:40:28;;;;;;;9.57;5.47;;;13.50;83.20;;;;;;5073255;28;20048;-74
2021/11/04 11:43:09;;;;;;;8.52;5.63;;;13.60;83.20;;;;;;5074342;28;20024;-74
2021/11/04 11:45:36;;;;;;;;;;;13.60;83.20;;;;;;5074671;28;20016;-76
2021/11/04 11:48:23;;;;;;;8.25;5.10;;;13.60;83.20;;;;;;5072905;28;19911;-77
2021/11/04 11:50:50;;;;;;;8.52;5.47;;;13.60;83.10;;;;;;5074181;28;20060;-75
2021/11/04 11:53:41;;;;;;;8.20;5.15;;;13.60;83.00;;;;;;5072729;28;20478;-74
2021/11/04 11:56:20;;;;;;;7.75;5.10;;;13.60;82.90;;;;;;5073862;28;20104;-76
2021/11/04 11:58:48;;;;;;;7.47;4.68;;;13.60;82.90;;;;;;5072616;28;20028;-75
2021/11/04 12:01:19;;;;;;;7.95;4.70;;;13.60;82.90;;;;;;5073904;28;20023;-75
2021/11/04 12:03:49;;;;;;;;;;;13.60;82.80;;;;;;5073246;28;20017;-76
2021/11/04 12:06:15;;;;;;;7.43;4.80;;;13.60;82.90;;;;;;5071658;28;19912;-75
2021/11/04 12:08:49;;;;;;;7.70;4.78;;;13.60;82.90;;;;;;5072542;28;20108;-74
2021/11/04 12:11:33;;;;;;;8.20;4.72;;;13.60;82.90;;;;;;5072490;28;20047;-76
2021/11/04 12:14:19;;;;;;;8.35;4.90;;;13.60;82.90;;;;;;5072400;28;20028;-75
2021/11/04 12:17:14;;;;;;;7.47;4.88;;;13.60;82.90;;;;;;5073270;28;20020;-74
2021/11/04 12:19:52;;;;;;;7.70;4.97;;;13.70;82.90;;;;;;5059650;28;20043;-75
2021/11/04 12:22:18;;;;;;;7.55;4.70;;;13.60;82.90;;;;;;5072394;28;20021;-76
2021/11/04 12:24:52;;;;;;;7.13;4.63;;;13.60;83.00;;;;;;5073373;28;20024;-74
2021/11/04 12:27:18;;;;;;;7.30;4.53;;;13.60;83.20;;;;;;5073163;28;20082;-75
2021/11/04 12:29:45;;;;;;;8.85;4.80;;;13.60;83.40;;;;;;5071853;28;20115;-76
2021/11/04 12:32:12;;;;;;;7.85;5.00;;;13.50;83.40;;;;;;5073307;28;20031;-75
2021/11/04 12:34:38;;;;;;;7.78;4.88;;;13.50;83.50;;;;;;5072032;28;20092;-74
2021/11/04 12:37:09;;;;;;;8.50;4.63;;;13.50;83.50;;;;;;5071788;28;20427;-74
2021/11/04 12:39:35;;;;;;;7.63;4.93;;;13.50;83.60;;;;;;5071981;28;20406;-74
2021/11/04 12:42:01;;;;;;;7.43;4.63;;;13.50;83.60;;;;;;5071833;28;20486;-74